sensor_id;sensor_type;location;lat;lon;timestamp;temperature;humidity
17495;DHT22;8864;51.970;4.614;2022-08-11T00:01:53;25.30;68.20
17495;DHT22;8864;51.970;4.614;2022-08-11T00:04:35;25.30;68.20
17495;DHT22;8864;51.970;4.614;2022-08-11T00:07:04;25.30;68.10
17495;DHT22;8864;51.970;4.614;2022-08-11T00:09:36;25.30;68.00
17495;DHT22;8864;51.970;4.614;2022-08-11T00:12:11;25.30;68.10
17495;DHT22;8864;51.970;4.614;2022-08-11T00:14:40;25.30;68.00
17495;DHT22;8864;51.970;4.614;2022-08-11T00:17:09;25.30;68.00
17495;DHT22;8864;51.970;4.614;2022-08-11T00:19:38;25.30;68.00
17495;DHT22;8864;51.970;4.614;2022-08-11T00:22:08;25.30;68.00
17495;DHT22;8864;51.970;4.614;2022-08-11T00:24:38;25.30;68.00
17495;DHT22;8864;51.970;4.614;2022-08-11T00:27:06;25.30;67.90
17495;DHT22;8864;51.970;4.614;2022-08-11T00:29:33;25.30;67.90
17495;DHT22;8864;51.970;4.614;2022-08-11T00:32:03;25.30;67.90
17495;DHT22;8864;51.970;4.614;2022-08-11T00:34:34;25.30;67.80
17495;DHT22;8864;51.970;4.614;2022-08-11T00:37:04;25.30;67.90
17495;DHT22;8864;51.970;4.614;2022-08-11T00:39:35;25.30;67.80
17495;DHT22;8864;51.970;4.614;2022-08-11T00:42:15;25.30;67.70
17495;DHT22;8864;51.970;4.614;2022-08-11T00:45:00;25.30;67.70
17495;DHT22;8864;51.970;4.614;2022-08-11T00:47:43;25.30;67.70
17495;DHT22;8864;51.970;4.614;2022-08-11T00:50:46;25.30;67.70
17495;DHT22;8864;51.970;4.614;2022-08-11T00:53:38;25.30;67.70
17495;DHT22;8864;51.970;4.614;2022-08-11T00:56:23;25.30;67.70
17495;DHT22;8864;51.970;4.614;2022-08-11T01:02:12;25.20;67.70
17495;DHT22;8864;51.970;4.614;2022-08-11T01:05:18;25.20;67.60
17495;DHT22;8864;51.970;4.614;2022-08-11T01:14:14;25.20;67.60
17495;DHT22;8864;51.970;4.614;2022-08-11T01:20:14;25.20;67.60
17495;DHT22;8864;51.970;4.614;2022-08-11T01:23:29;25.20;67.60
17495;DHT22;8864;51.970;4.614;2022-08-11T01:43:13;25.20;67.30
17495;DHT22;8864;51.970;4.614;2022-08-11T01:46:06;25.20;67.30
17495;DHT22;8864;51.970;4.614;2022-08-11T01:48:40;25.20;67.30
17495;DHT22;8864;51.970;4.614;2022-08-11T01:51:23;25.20;67.20
17495;DHT22;8864;51.970;4.614;2022-08-11T01:54:02;25.20;67.10
17495;DHT22;8864;51.970;4.614;2022-08-11T01:56:39;25.20;67.10
17495;DHT22;8864;51.970;4.614;2022-08-11T01:59:16;25.20;67.00
17495;DHT22;8864;51.970;4.614;2022-08-11T02:02:05;25.20;67.00
17495;DHT22;8864;51.970;4.614;2022-08-11T02:04:38;25.20;66.90
17495;DHT22;8864;51.970;4.614;2022-08-11T02:27:17;25.10;66.50
17495;DHT22;8864;51.970;4.614;2022-08-11T02:30:04;25.10;66.40
17495;DHT22;8864;51.970;4.614;2022-08-11T02:32:38;25.10;66.40
17495;DHT22;8864;51.970;4.614;2022-08-11T02:35:27;25.10;66.40
17495;DHT22;8864;51.970;4.614;2022-08-11T02:38:16;25.10;66.40
17495;DHT22;8864;51.970;4.614;2022-08-11T02:40:49;25.10;66.30
17495;DHT22;8864;51.970;4.614;2022-08-11T02:43:31;25.10;66.30
17495;DHT22;8864;51.970;4.614;2022-08-11T02:46:15;25.10;66.20
17495;DHT22;8864;51.970;4.614;2022-08-11T02:48:52;25.10;66.10
17495;DHT22;8864;51.970;4.614;2022-08-11T02:52:02;25.10;66.00
17495;DHT22;8864;51.970;4.614;2022-08-11T02:54:36;25.10;65.90
17495;DHT22;8864;51.970;4.614;2022-08-11T02:57:15;25.10;65.90
17495;DHT22;8864;51.970;4.614;2022-08-11T02:59:49;25.10;65.80
17495;DHT22;8864;51.970;4.614;2022-08-11T03:02:33;25.10;65.80
17495;DHT22;8864;51.970;4.614;2022-08-11T03:05:14;25.00;65.80
17495;DHT22;8864;51.970;4.614;2022-08-11T03:07:55;25.00;65.60
17495;DHT22;8864;51.970;4.614;2022-08-11T03:10:31;25.00;65.60
17495;DHT22;8864;51.970;4.614;2022-08-11T03:13:09;25.00;65.60
17495;DHT22;8864;51.970;4.614;2022-08-11T03:21:28;25.00;65.50
17495;DHT22;8864;51.970;4.614;2022-08-11T03:24:02;25.00;65.50
17495;DHT22;8864;51.970;4.614;2022-08-11T03:26:34;25.00;65.40
17495;DHT22;8864;51.970;4.614;2022-08-11T03:29:09;25.00;65.50
17495;DHT22;8864;51.970;4.614;2022-08-11T03:31:45;25.00;65.60
17495;DHT22;8864;51.970;4.614;2022-08-11T03:34:16;25.00;65.70
17495;DHT22;8864;51.970;4.614;2022-08-11T03:37:05;25.00;65.80
17495;DHT22;8864;51.970;4.614;2022-08-11T03:39:47;25.00;65.90
17495;DHT22;8864;51.970;4.614;2022-08-11T03:42:19;25.10;66.00
17495;DHT22;8864;51.970;4.614;2022-08-11T03:45:00;25.10;65.90
17495;DHT22;8864;51.970;4.614;2022-08-11T03:47:40;25.10;65.90
17495;DHT22;8864;51.970;4.614;2022-08-11T03:50:20;25.10;65.90
17495;DHT22;8864;51.970;4.614;2022-08-11T03:52:57;25.10;65.80
17495;DHT22;8864;51.970;4.614;2022-08-11T03:55:32;25.10;65.70
17495;DHT22;8864;51.970;4.614;2022-08-11T03:58:27;25.10;65.70
17495;DHT22;8864;51.970;4.614;2022-08-11T04:01:33;25.10;65.60
17495;DHT22;8864;51.970;4.614;2022-08-11T04:07:45;25.10;65.50
17495;DHT22;8864;51.970;4.614;2022-08-11T04:13:39;25.10;65.50
17495;DHT22;8864;51.970;4.614;2022-08-11T04:16:28;25.10;65.40
17495;DHT22;8864;51.970;4.614;2022-08-11T04:19:43;25.10;65.30
17495;DHT22;8864;51.970;4.614;2022-08-11T04:22:46;25.10;65.20
17495;DHT22;8864;51.970;4.614;2022-08-11T04:25:28;25.10;65.10
17495;DHT22;8864;51.970;4.614;2022-08-11T04:28:15;25.10;65.20
17495;DHT22;8864;51.970;4.614;2022-08-11T04:31:07;25.10;65.10
17495;DHT22;8864;51.970;4.614;2022-08-11T04:36:43;25.10;65.10
17495;DHT22;8864;51.970;4.614;2022-08-11T04:39:45;25.10;65.00
17495;DHT22;8864;51.970;4.614;2022-08-11T04:43:01;25.10;64.90
17495;DHT22;8864;51.970;4.614;2022-08-11T04:49:04;25.00;64.70
17495;DHT22;8864;51.970;4.614;2022-08-11T04:55:35;24.90;64.50
17495;DHT22;8864;51.970;4.614;2022-08-11T04:58:37;25.00;64.60
17495;DHT22;8864;51.970;4.614;2022-08-11T05:01:42;25.00;64.60
17495;DHT22;8864;51.970;4.614;2022-08-11T05:04:38;24.90;64.40
17495;DHT22;8864;51.970;4.614;2022-08-11T05:07:50;24.90;64.30
17495;DHT22;8864;51.970;4.614;2022-08-11T05:10:44;24.90;64.30
17495;DHT22;8864;51.970;4.614;2022-08-11T05:13:25;24.90;64.30
17495;DHT22;8864;51.970;4.614;2022-08-11T05:16:14;24.90;64.20
17495;DHT22;8864;51.970;4.614;2022-08-11T05:19:01;24.90;64.30
17495;DHT22;8864;51.970;4.614;2022-08-11T05:24:21;25.00;64.40
17495;DHT22;8864;51.970;4.614;2022-08-11T05:27:09;25.00;64.40
17495;DHT22;8864;51.970;4.614;2022-08-11T05:29:59;25.00;64.30
17495;DHT22;8864;51.970;4.614;2022-08-11T05:32:57;25.00;64.30
17495;DHT22;8864;51.970;4.614;2022-08-11T05:35:45;25.00;64.20
17495;DHT22;8864;51.970;4.614;2022-08-11T05:38:17;25.00;64.10
17495;DHT22;8864;51.970;4.614;2022-08-11T05:41:03;25.00;64.10
17495;DHT22;8864;51.970;4.614;2022-08-11T05:43:49;25.00;64.10
17495;DHT22;8864;51.970;4.614;2022-08-11T05:49:09;25.00;64.00
17495;DHT22;8864;51.970;4.614;2022-08-11T05:51:54;25.00;64.00
17495;DHT22;8864;51.970;4.614;2022-08-11T05:54:40;25.00;63.90
17495;DHT22;8864;51.970;4.614;2022-08-11T05:57:29;25.00;63.90
17495;DHT22;8864;51.970;4.614;2022-08-11T06:00:01;25.00;63.90
17495;DHT22;8864;51.970;4.614;2022-08-11T06:02:30;25.00;63.80
17495;DHT22;8864;51.970;4.614;2022-08-11T06:04:57;25.00;63.80
17495;DHT22;8864;51.970;4.614;2022-08-11T06:07:27;25.00;63.80
17495;DHT22;8864;51.970;4.614;2022-08-11T06:09:57;25.10;63.80
17495;DHT22;8864;51.970;4.614;2022-08-11T06:12:28;25.10;63.90
17495;DHT22;8864;51.970;4.614;2022-08-11T06:15:02;25.10;63.90
17495;DHT22;8864;51.970;4.614;2022-08-11T06:17:34;25.10;64.10
17495;DHT22;8864;51.970;4.614;2022-08-11T06:20:16;25.10;64.60
17495;DHT22;8864;51.970;4.614;2022-08-11T06:22:55;25.10;64.10
17495;DHT22;8864;51.970;4.614;2022-08-11T06:25:40;25.00;63.80
17495;DHT22;8864;51.970;4.614;2022-08-11T06:50:18;25.00;62.60
17495;DHT22;8864;51.970;4.614;2022-08-11T06:53:23;25.00;62.30
17495;DHT22;8864;51.970;4.614;2022-08-11T06:56:09;25.00;62.40
17495;DHT22;8864;51.970;4.614;2022-08-11T06:59:03;25.00;62.40
17495;DHT22;8864;51.970;4.614;2022-08-11T07:02:23;24.90;62.30
17495;DHT22;8864;51.970;4.614;2022-08-11T07:05:57;24.90;62.40
17495;DHT22;8864;51.970;4.614;2022-08-11T08:37:43;25.10;63.80
17495;DHT22;8864;51.970;4.614;2022-08-11T08:41:01;25.10;63.70
17495;DHT22;8864;51.970;4.614;2022-08-11T08:50:33;25.20;63.70
17495;DHT22;8864;51.970;4.614;2022-08-11T10:10:00;25.40;63.60
17495;DHT22;8864;51.970;4.614;2022-08-11T10:12:31;25.40;63.60
17495;DHT22;8864;51.970;4.614;2022-08-11T10:15:03;25.40;63.60
17495;DHT22;8864;51.970;4.614;2022-08-11T10:17:50;25.40;63.60
17495;DHT22;8864;51.970;4.614;2022-08-11T10:20:34;25.40;63.60
17495;DHT22;8864;51.970;4.614;2022-08-11T10:23:02;25.40;63.50
17495;DHT22;8864;51.970;4.614;2022-08-11T10:25:48;25.50;63.50
17495;DHT22;8864;51.970;4.614;2022-08-11T10:28:34;25.50;63.50
17495;DHT22;8864;51.970;4.614;2022-08-11T10:31:03;25.50;63.50
17495;DHT22;8864;51.970;4.614;2022-08-11T10:42:14;25.50;63.40
17495;DHT22;8864;51.970;4.614;2022-08-11T10:48:35;25.60;63.40
17495;DHT22;8864;51.970;4.614;2022-08-11T11:43:01;25.80;63.30
17495;DHT22;8864;51.970;4.614;2022-08-11T11:48:36;25.70;63.20
17495;DHT22;8864;51.970;4.614;2022-08-11T11:51:17;25.70;63.20
17495;DHT22;8864;51.970;4.614;2022-08-11T11:58:02;25.70;63.10
17495;DHT22;8864;51.970;4.614;2022-08-11T15:44:15;26.80;61.50
17495;DHT22;8864;51.970;4.614;2022-08-11T15:47:01;26.80;61.60
17495;DHT22;8864;51.970;4.614;2022-08-11T15:49:32;26.80;61.60
17495;DHT22;8864;51.970;4.614;2022-08-11T15:52:02;26.80;61.50
17495;DHT22;8864;51.970;4.614;2022-08-11T23:56:03;26.50;62.30
17495;DHT22;8864;51.970;4.614;2022-08-11T23:58:50;26.50;62.30
